createdAt,value
2024-04-14T00:00:03.386Z,78.3
2024-04-14T00:05:03.538Z,81.1
2024-04-14T00:10:03.452Z,80.58
2024-04-14T00:15:02.796Z,79.79
2024-04-14T00:20:04.260Z,78.86
2024-04-14T00:25:02.842Z,80.36
2024-04-14T00:30:03.250Z,80.21
2024-04-14T00:35:02.727Z,79.11
2024-04-14T00:40:03.671Z,79.89
2024-04-14T00:45:03.297Z,80.61
2024-04-14T00:50:02.895Z,80.97
2024-04-14T00:55:03.901Z,78.78
2024-04-14T01:00:03.407Z,80.06
2024-04-14T01:05:03.340Z,78.02
2024-04-14T01:10:03.068Z,78.43
2024-04-14T01:15:03.449Z,78.22
2024-04-14T01:20:03.451Z,77.05
2024-04-14T01:25:03.538Z,77.08
2024-04-14T01:30:03.333Z,76.88
2024-04-14T01:35:03.250Z,77.04
2024-04-14T01:40:03.034Z,76.64
2024-04-14T01:45:03.469Z,78.29
2024-04-14T01:50:03.208Z,78.17
2024-04-14T01:55:03.273Z,79.38
2024-04-14T02:00:02.715Z,79.46
2024-04-14T02:05:03.331Z,80.04
2024-04-14T02:10:03.280Z,79.67
2024-04-14T02:15:02.969Z,80.06
2024-04-14T02:20:02.685Z,80.39
2024-04-14T02:25:03.614Z,80.69
2024-04-14T02:30:03.326Z,81.56
2024-04-14T02:35:02.935Z,82.11
2024-04-14T02:40:02.899Z,84.31
2024-04-14T02:45:03.477Z,83.9
2024-04-14T02:50:02.458Z,83.61
2024-04-14T02:55:04.662Z,84.37
2024-04-14T03:00:02.999Z,85.11
2024-04-14T03:05:02.922Z,85.76
2024-04-14T03:10:03.633Z,85.43
2024-04-14T03:15:03.113Z,83.61
2024-04-14T03:20:02.968Z,83.05
2024-04-14T03:25:03.592Z,84.55
2024-04-14T03:30:03.256Z,86.42
2024-04-14T03:35:02.940Z,89.74
2024-04-14T03:40:03.138Z,90.67
2024-04-14T03:45:02.674Z,91.16
2024-04-14T03:50:02.916Z,92.46
2024-04-14T03:55:04.910Z,93.12
2024-04-14T04:00:03.377Z,91.42
2024-04-14T04:05:03.208Z,92.55
2024-04-14T04:10:02.850Z,89.73
2024-04-14T04:15:03.148Z,87.36
2024-04-14T04:20:03.095Z,87.93
2024-04-14T04:25:03.973Z,87.16
2024-04-14T04:30:03.541Z,87.1
2024-04-14T04:35:03.269Z,87.07
2024-04-14T04:40:03.834Z,86.41
2024-04-14T04:45:03.440Z,86.01
2024-04-14T04:50:02.856Z,87.11
2024-04-14T04:55:03.715Z,90.08
2024-04-14T05:00:03.618Z,87.8
2024-04-14T05:05:03.235Z,87.66
2024-04-14T05:10:03.341Z,87.13
2024-04-14T05:15:02.317Z,89.97
2024-04-14T05:20:03.472Z,90.45
2024-04-14T05:25:03.552Z,90.68
2024-04-14T05:30:02.918Z,90
2024-04-14T05:35:02.614Z,89.15
2024-04-14T05:40:03.529Z,89.9
2024-04-14T05:45:03.335Z,87.88
2024-04-14T05:50:03.555Z,84.19
2024-04-14T05:55:03.444Z,82.26
2024-04-14T06:00:03.574Z,79.92
2024-04-14T06:05:03.248Z,76.17
2024-04-14T06:10:03.073Z,75.96
2024-04-14T06:15:03.630Z,77.8
2024-04-14T06:20:03.362Z,74.44
2024-04-14T06:25:03.249Z,71.82
2024-04-14T06:30:02.851Z,74.6
2024-04-14T06:35:03.520Z,73.86
2024-04-14T06:40:03.438Z,73.29
2024-04-14T06:45:02.922Z,72.92
2024-04-14T06:50:03.656Z,74.62
2024-04-14T06:55:03.722Z,72.74
2024-04-14T07:00:02.991Z,71.68
2024-04-14T07:05:02.727Z,72.93
2024-04-14T07:10:03.737Z,73.12
2024-04-14T07:15:03.341Z,73.17
2024-04-14T07:20:03.082Z,70.79
2024-04-14T07:25:03.189Z,71.89
2024-04-14T07:30:03.479Z,73.67
2024-04-14T07:35:03.044Z,75.43
2024-04-14T07:40:02.510Z,74.27
2024-04-14T07:45:03.796Z,76.89
2024-04-14T07:50:03.445Z,77.9
2024-04-14T07:55:04.153Z,76.72
2024-04-14T08:00:02.871Z,76
2024-04-14T08:05:04.271Z,76.83
2024-04-14T08:10:03.621Z,73.73
2024-04-14T08:15:03.117Z,75.94
2024-04-14T08:20:02.848Z,72.26
2024-04-14T08:25:03.951Z,71.73
2024-04-14T08:30:03.320Z,71.53
2024-04-14T08:35:02.915Z,73.24
2024-04-14T08:40:03.023Z,71.32
2024-04-14T08:45:03.537Z,76.65
2024-04-14T08:50:02.788Z,71.27
2024-04-14T08:55:04.070Z,73.5
2024-04-14T09:00:03.219Z,74.8
2024-04-14T09:05:02.882Z,71.42
2024-04-14T09:10:03.870Z,71.59
2024-04-14T09:15:03.427Z,67.37
2024-04-14T09:20:03.102Z,61.53
2024-04-14T09:25:03.127Z,57.24
2024-04-14T09:30:03.599Z,57.19
2024-04-14T09:35:03.363Z,57.42
2024-04-14T09:40:03.511Z,58.27
2024-04-14T09:45:02.949Z,55.09
2024-04-14T09:50:03.589Z,58.07
2024-04-14T09:55:04.570Z,58.52
2024-04-14T10:00:03.190Z,55.89
2024-04-14T10:05:02.386Z,54.61
2024-04-14T10:10:03.295Z,55.92
2024-04-14T10:15:09.275Z,59.8
2024-04-14T10:20:03.465Z,55.83
2024-04-14T10:25:03.526Z,54.82
2024-04-14T10:30:02.848Z,55.72
2024-04-14T10:35:03.778Z,57.78
2024-04-14T10:40:03.863Z,59.29
2024-04-14T10:45:03.190Z,54.76
2024-04-14T10:50:02.799Z,54.92
2024-04-14T10:55:04.912Z,56.52
2024-04-14T11:00:03.295Z,55.58
2024-04-14T11:05:02.981Z,54.13
2024-04-14T11:10:03.193Z,53.83
2024-04-14T11:15:03.634Z,55.79
2024-04-14T11:20:03.171Z,53.94
2024-04-14T11:25:03.825Z,51.93
2024-04-14T11:30:03.641Z,51.63
2024-04-14T11:35:03.383Z,49.96
2024-04-14T11:40:08.038Z,52.23
2024-04-14T11:45:03.005Z,53.64
2024-04-14T11:50:02.754Z,52.71
2024-04-14T11:55:03.850Z,55.22
2024-04-14T12:00:03.298Z,50.71
2024-04-14T12:05:03.269Z,54.35
2024-04-14T12:10:03.664Z,53.29
2024-04-14T12:15:02.976Z,50.33
2024-04-14T12:20:02.935Z,53.79
2024-04-14T12:25:03.154Z,50.28
2024-04-14T12:30:03.384Z,53.23
2024-04-14T12:35:02.635Z,54.3
2024-04-14T12:40:03.452Z,49.83
2024-04-14T12:45:03.587Z,46.56
2024-04-14T12:50:03.490Z,50.88
2024-04-14T12:55:04.210Z,48.1
2024-04-14T13:00:02.825Z,51.22
2024-04-14T13:05:03.672Z,48.9
2024-04-14T13:10:03.705Z,51
2024-04-14T13:15:03.248Z,50.46
2024-04-14T13:20:03.043Z,55.03
2024-04-14T13:25:03.882Z,48.44
2024-04-14T13:30:03.330Z,52.28
2024-04-14T13:35:03.323Z,45.23
2024-04-14T13:40:03.410Z,50.89
2024-04-14T13:45:02.736Z,46.45
2024-04-14T13:50:03.454Z,49.81
2024-04-14T13:55:07.537Z,50.23
2024-04-14T14:00:03.313Z,43.93
2024-04-14T14:05:03.527Z,46.82
2024-04-14T14:10:03.337Z,46.21
2024-04-14T14:15:02.944Z,50.32
2024-04-14T14:20:03.444Z,50.1
2024-04-14T14:25:03.280Z,48.82
2024-04-14T14:30:02.877Z,49.69
2024-04-14T14:35:03.517Z,46.12
2024-04-14T14:40:03.450Z,48.5
2024-04-14T14:45:03.131Z,46.79
2024-04-14T14:50:02.906Z,53.94
2024-04-14T14:55:04.849Z,48.59
2024-04-14T15:00:02.675Z,48.58
2024-04-14T15:05:03.731Z,49.79
2024-04-14T15:10:03.115Z,50.35
2024-04-14T15:15:03.539Z,45.41
2024-04-14T15:20:03.602Z,46.76
2024-04-14T15:25:03.562Z,46.06
2024-04-14T15:30:03.051Z,47.15
2024-04-14T15:35:02.650Z,47.43
2024-04-14T15:40:03.715Z,46.54
2024-04-14T15:45:03.409Z,46.24
2024-04-14T15:50:02.874Z,46.99
2024-04-14T15:55:04.432Z,46.51
2024-04-14T16:00:03.374Z,49.44
2024-04-14T16:05:03.842Z,50.29
2024-04-14T16:10:03.424Z,49.87
2024-04-14T16:15:03.557Z,46.29
2024-04-14T16:20:03.225Z,46.44
2024-04-14T16:25:03.226Z,40.56
2024-04-14T16:30:03.619Z,44.44
2024-04-14T16:35:03.210Z,46.38
2024-04-14T16:40:03.533Z,49.58
2024-04-14T16:45:03.088Z,50.16
2024-04-14T16:50:02.720Z,43.52
2024-04-14T16:55:03.880Z,43.23
2024-04-14T17:00:03.268Z,40.27
2024-04-14T17:05:03.237Z,40.76
2024-04-14T17:10:02.822Z,41.06
2024-04-14T17:15:03.451Z,41.35
2024-04-14T17:20:03.226Z,40.8
2024-04-14T17:25:02.543Z,43.44
2024-04-14T17:30:03.628Z,43.59
2024-04-14T17:35:03.371Z,43.77
2024-04-14T17:40:07.424Z,43.54
2024-04-14T17:45:03.573Z,47.5
2024-04-14T17:50:03.253Z,51.24
2024-04-14T17:55:04.330Z,52.96
2024-04-14T18:00:02.814Z,55.37
2024-04-14T18:05:03.317Z,56.77
2024-04-14T18:10:03.434Z,58.92
2024-04-14T18:15:03.221Z,59.89
2024-04-14T18:20:02.944Z,62.25
2024-04-14T18:25:02.854Z,61.33
2024-04-14T18:30:03.375Z,60.53
2024-04-14T18:35:03.343Z,58.39
2024-04-14T18:40:03.234Z,53.26
2024-04-14T18:45:02.947Z,50.21
2024-04-14T18:50:03.506Z,47.62
2024-04-14T18:55:04.236Z,46.97
2024-04-14T19:00:03.340Z,51.7
2024-04-14T19:05:03.531Z,58.41
2024-04-14T19:10:03.540Z,56.6
2024-04-14T19:15:03.343Z,62.22
2024-04-14T19:20:03.030Z,60.89
2024-04-14T19:25:02.920Z,61.8
2024-04-14T19:30:03.460Z,65.55
2024-04-14T19:35:03.143Z,69.15
2024-04-14T19:40:03.026Z,70.17
2024-04-14T19:45:03.196Z,73.18
2024-04-14T19:50:03.270Z,73.09
2024-04-14T19:55:04.141Z,71.51
2024-04-14T20:00:03.591Z,71.43
2024-04-14T20:05:03.228Z,74.68
2024-04-14T20:10:03.447Z,76.62
2024-04-14T20:15:02.739Z,76.83
2024-04-14T20:20:03.436Z,75.96
2024-04-14T20:25:03.367Z,73.96
2024-04-14T20:30:03.124Z,71.03
2024-04-14T20:35:02.741Z,73.61
2024-04-14T20:40:03.699Z,76.47
2024-04-14T20:45:03.138Z,78.12
2024-04-14T20:50:02.886Z,77.44
2024-04-14T20:55:04.407Z,77.35
2024-04-14T21:00:03.266Z,76.61
2024-04-14T21:05:02.930Z,78.56
2024-04-14T21:10:02.970Z,79.38
2024-04-14T21:15:02.888Z,79.45
2024-04-14T21:20:02.660Z,77.7
2024-04-14T21:25:03.605Z,79.07
2024-04-14T21:30:03.261Z,80.18
2024-04-14T21:35:02.798Z,79.5
2024-04-14T21:40:02.973Z,81.42
2024-04-14T21:45:03.615Z,79.47
2024-04-14T21:50:03.345Z,77.24
2024-04-14T21:55:03.793Z,77.89
2024-04-14T22:00:03.109Z,77.6
2024-04-14T22:05:02.345Z,76.92
2024-04-14T22:10:03.596Z,79.88
2024-04-14T22:15:03.155Z,78.72
2024-04-14T22:20:03.013Z,79.85
2024-04-14T22:25:02.603Z,81.39
2024-04-14T22:30:03.058Z,84.48
2024-04-14T22:35:03.563Z,84.44
2024-04-14T22:40:03.466Z,84.14
2024-04-14T22:45:02.893Z,85.48
2024-04-14T22:50:03.546Z,86.52
2024-04-14T22:55:04.270Z,86.09
2024-04-14T23:00:03.099Z,85.59
2024-04-14T23:05:02.855Z,86.7
2024-04-14T23:10:03.780Z,84.83
2024-04-14T23:15:03.521Z,83.14
2024-04-14T23:20:03.374Z,83.32
2024-04-14T23:25:03.161Z,84.42
2024-04-14T23:30:02.863Z,85.19
2024-04-14T23:35:03.472Z,86.91
2024-04-14T23:40:03.561Z,87.74
2024-04-14T23:45:03.273Z,86.11
2024-04-14T23:50:02.716Z,82.87
2024-04-14T23:55:04.281Z,83.63
